sensor_id;sensor_type;location;lat;lon;timestamp;P1;durP1;ratioP1;P2;durP2;ratioP2
54919;SDS011;63804;53.120;8.764;2023-04-10T00:02:25;38.58;;;24.58;;
54919;SDS011;63804;53.120;8.764;2023-04-10T00:04:50;35.75;;;23.77;;
54919;SDS011;63804;53.120;8.764;2023-04-10T00:07:16;37.72;;;25.00;;
54919;SDS011;63804;53.120;8.764;2023-04-10T00:09:42;35.53;;;24.05;;
54919;SDS011;63804;53.120;8.764;2023-04-10T00:12:07;35.53;;;23.63;;
54919;SDS011;63804;53.120;8.764;2023-04-10T00:14:35;35.30;;;23.50;;
54919;SDS011;63804;53.120;8.764;2023-04-10T00:17:01;36.80;;;23.80;;
54919;SDS011;63804;53.120;8.764;2023-04-10T00:19:27;36.70;;;24.52;;
54919;SDS011;63804;53.120;8.764;2023-04-10T00:21:52;33.30;;;22.60;;
54919;SDS011;63804;53.120;8.764;2023-04-10T00:24:18;36.53;;;23.42;;
54919;SDS011;63804;53.120;8.764;2023-04-10T00:26:43;36.25;;;25.15;;
54919;SDS011;63804;53.120;8.764;2023-04-10T00:29:09;36.58;;;24.20;;
54919;SDS011;63804;53.120;8.764;2023-04-10T00:31:34;39.28;;;24.88;;
54919;SDS011;63804;53.120;8.764;2023-04-10T00:34:00;37.15;;;24.60;;
54919;SDS011;63804;53.120;8.764;2023-04-10T00:36:25;38.33;;;25.98;;
54919;SDS011;63804;53.120;8.764;2023-04-10T00:38:52;35.15;;;23.70;;
54919;SDS011;63804;53.120;8.764;2023-04-10T00:41:17;38.63;;;24.95;;
54919;SDS011;63804;53.120;8.764;2023-04-10T00:43:43;42.40;;;25.50;;
54919;SDS011;63804;53.120;8.764;2023-04-10T00:46:09;43.22;;;26.27;;
54919;SDS011;63804;53.120;8.764;2023-04-10T00:48:35;37.15;;;25.60;;
54919;SDS011;63804;53.120;8.764;2023-04-10T00:51:01;41.33;;;26.25;;
54919;SDS011;63804;53.120;8.764;2023-04-10T00:53:28;37.78;;;25.75;;
54919;SDS011;63804;53.120;8.764;2023-04-10T00:55:55;37.85;;;25.17;;
54919;SDS011;63804;53.120;8.764;2023-04-10T00:58:21;38.42;;;25.17;;
54919;SDS011;63804;53.120;8.764;2023-04-10T01:00:47;39.10;;;26.58;;
54919;SDS011;63804;53.120;8.764;2023-04-10T01:03:13;40.55;;;26.33;;
54919;SDS011;63804;53.120;8.764;2023-04-10T01:05:42;43.00;;;27.23;;
54919;SDS011;63804;53.120;8.764;2023-04-10T01:08:23;39.17;;;26.17;;
54919;SDS011;63804;53.120;8.764;2023-04-10T01:13:59;41.63;;;27.05;;
54919;SDS011;63804;53.120;8.764;2023-04-10T01:17:27;41.58;;;27.15;;
54919;SDS011;63804;53.120;8.764;2023-04-10T01:22:16;43.55;;;27.67;;
54919;SDS011;63804;53.120;8.764;2023-04-10T01:30:16;43.42;;;28.13;;
54919;SDS011;63804;53.120;8.764;2023-04-10T01:32:46;41.83;;;28.40;;
54919;SDS011;63804;53.120;8.764;2023-04-10T01:35:14;42.92;;;27.88;;
54919;SDS011;63804;53.120;8.764;2023-04-10T01:37:41;40.28;;;27.98;;
54919;SDS011;63804;53.120;8.764;2023-04-10T01:40:09;44.47;;;28.92;;
54919;SDS011;63804;53.120;8.764;2023-04-10T01:42:47;44.25;;;30.67;;
54919;SDS011;63804;53.120;8.764;2023-04-10T01:45:17;43.72;;;28.73;;
54919;SDS011;63804;53.120;8.764;2023-04-10T01:47:46;45.08;;;29.40;;
54919;SDS011;63804;53.120;8.764;2023-04-10T01:50:12;44.80;;;28.27;;
54919;SDS011;63804;53.120;8.764;2023-04-10T01:52:39;44.72;;;30.17;;
54919;SDS011;63804;53.120;8.764;2023-04-10T01:55:06;46.10;;;31.08;;
54919;SDS011;63804;53.120;8.764;2023-04-10T01:57:33;44.25;;;29.27;;
54919;SDS011;63804;53.120;8.764;2023-04-10T02:00:00;44.05;;;29.08;;
54919;SDS011;63804;53.120;8.764;2023-04-10T02:02:29;46.10;;;29.90;;
54919;SDS011;63804;53.120;8.764;2023-04-10T02:04:57;45.20;;;29.92;;
54919;SDS011;63804;53.120;8.764;2023-04-10T02:07:38;45.67;;;30.95;;
54919;SDS011;63804;53.120;8.764;2023-04-10T02:10:21;45.60;;;30.80;;
54919;SDS011;63804;53.120;8.764;2023-04-10T02:13:00;45.50;;;30.27;;
54919;SDS011;63804;53.120;8.764;2023-04-10T02:15:30;44.95;;;29.88;;
54919;SDS011;63804;53.120;8.764;2023-04-10T02:17:57;46.30;;;30.95;;
54919;SDS011;63804;53.120;8.764;2023-04-10T02:20:24;45.28;;;30.65;;
54919;SDS011;63804;53.120;8.764;2023-04-10T02:22:51;47.53;;;31.92;;
54919;SDS011;63804;53.120;8.764;2023-04-10T02:25:17;46.92;;;31.60;;
54919;SDS011;63804;53.120;8.764;2023-04-10T02:27:43;46.60;;;30.80;;
54919;SDS011;63804;53.120;8.764;2023-04-10T02:30:09;44.33;;;29.42;;
54919;SDS011;63804;53.120;8.764;2023-04-10T02:32:35;45.67;;;30.80;;
54919;SDS011;63804;53.120;8.764;2023-04-10T02:35:01;44.33;;;29.77;;
54919;SDS011;63804;53.120;8.764;2023-04-10T02:37:27;41.95;;;29.77;;
54919;SDS011;63804;53.120;8.764;2023-04-10T02:39:53;46.08;;;29.45;;
54919;SDS011;63804;53.120;8.764;2023-04-10T02:42:19;44.70;;;30.80;;
54919;SDS011;63804;53.120;8.764;2023-04-10T02:44:45;45.17;;;30.55;;
54919;SDS011;63804;53.120;8.764;2023-04-10T02:47:11;45.42;;;31.15;;
54919;SDS011;63804;53.120;8.764;2023-04-10T02:49:37;43.72;;;30.05;;
54919;SDS011;63804;53.120;8.764;2023-04-10T02:52:02;45.17;;;31.05;;
54919;SDS011;63804;53.120;8.764;2023-04-10T02:54:28;44.45;;;29.95;;
54919;SDS011;63804;53.120;8.764;2023-04-10T02:56:55;46.08;;;30.40;;
54919;SDS011;63804;53.120;8.764;2023-04-10T02:59:21;43.90;;;30.33;;
54919;SDS011;63804;53.120;8.764;2023-04-10T03:01:47;48.35;;;31.75;;
54919;SDS011;63804;53.120;8.764;2023-04-10T03:04:13;46.38;;;31.17;;
54919;SDS011;63804;53.120;8.764;2023-04-10T03:06:39;42.47;;;30.23;;
54919;SDS011;63804;53.120;8.764;2023-04-10T03:09:04;46.05;;;30.92;;
54919;SDS011;63804;53.120;8.764;2023-04-10T03:11:30;45.97;;;30.30;;
54919;SDS011;63804;53.120;8.764;2023-04-10T03:13:56;46.00;;;30.33;;
54919;SDS011;63804;53.120;8.764;2023-04-10T03:16:24;47.60;;;31.02;;
54919;SDS011;63804;53.120;8.764;2023-04-10T03:18:51;45.22;;;31.00;;
54919;SDS011;63804;53.120;8.764;2023-04-10T03:21:17;45.92;;;30.65;;
54919;SDS011;63804;53.120;8.764;2023-04-10T03:23:42;43.08;;;29.95;;
54919;SDS011;63804;53.120;8.764;2023-04-10T03:26:08;45.45;;;30.40;;
54919;SDS011;63804;53.120;8.764;2023-04-10T03:28:34;46.13;;;30.08;;
54919;SDS011;63804;53.120;8.764;2023-04-10T03:31:03;45.67;;;30.48;;
54919;SDS011;63804;53.120;8.764;2023-04-10T03:33:29;41.88;;;29.77;;
54919;SDS011;63804;53.120;8.764;2023-04-10T03:35:55;46.53;;;30.80;;
54919;SDS011;63804;53.120;8.764;2023-04-10T03:38:21;46.30;;;31.95;;
54919;SDS011;63804;53.120;8.764;2023-04-10T03:40:47;45.67;;;30.90;;
54919;SDS011;63804;53.120;8.764;2023-04-10T03:43:12;47.92;;;30.75;;
54919;SDS011;63804;53.120;8.764;2023-04-10T03:45:38;44.85;;;30.15;;
54919;SDS011;63804;53.120;8.764;2023-04-10T03:48:04;46.45;;;30.65;;
54919;SDS011;63804;53.120;8.764;2023-04-10T03:50:29;45.60;;;30.23;;
54919;SDS011;63804;53.120;8.764;2023-04-10T03:52:55;43.15;;;29.98;;
54919;SDS011;63804;53.120;8.764;2023-04-10T03:55:20;44.17;;;30.08;;
54919;SDS011;63804;53.120;8.764;2023-04-10T03:57:46;44.72;;;29.70;;
54919;SDS011;63804;53.120;8.764;2023-04-10T04:00:13;44.63;;;29.60;;
54919;SDS011;63804;53.120;8.764;2023-04-10T04:02:39;46.88;;;31.60;;
54919;SDS011;63804;53.120;8.764;2023-04-10T04:05:05;44.63;;;29.85;;
54919;SDS011;63804;53.120;8.764;2023-04-10T04:07:31;43.35;;;29.20;;
54919;SDS011;63804;53.120;8.764;2023-04-10T04:09:57;45.42;;;30.13;;
54919;SDS011;63804;53.120;8.764;2023-04-10T04:12:23;43.45;;;29.85;;
54919;SDS011;63804;53.120;8.764;2023-04-10T04:14:48;45.10;;;29.42;;
54919;SDS011;63804;53.120;8.764;2023-04-10T04:17:14;43.58;;;29.98;;
54919;SDS011;63804;53.120;8.764;2023-04-10T04:19:40;46.85;;;29.92;;
54919;SDS011;63804;53.120;8.764;2023-04-10T04:22:05;44.65;;;29.63;;
54919;SDS011;63804;53.120;8.764;2023-04-10T04:24:31;46.25;;;30.13;;
54919;SDS011;63804;53.120;8.764;2023-04-10T04:26:56;44.55;;;30.10;;
54919;SDS011;63804;53.120;8.764;2023-04-10T04:29:22;43.05;;;28.85;;
54919;SDS011;63804;53.120;8.764;2023-04-10T04:31:47;43.60;;;29.45;;
54919;SDS011;63804;53.120;8.764;2023-04-10T04:34:13;44.22;;;29.25;;
54919;SDS011;63804;53.120;8.764;2023-04-10T04:36:38;42.15;;;27.95;;
54919;SDS011;63804;53.120;8.764;2023-04-10T04:39:04;41.53;;;27.55;;
54919;SDS011;63804;53.120;8.764;2023-04-10T04:41:30;44.92;;;29.88;;
54919;SDS011;63804;53.120;8.764;2023-04-10T04:43:56;43.40;;;30.17;;
54919;SDS011;63804;53.120;8.764;2023-04-10T04:46:22;45.70;;;28.90;;
54919;SDS011;63804;53.120;8.764;2023-04-10T04:48:48;44.95;;;29.67;;
54919;SDS011;63804;53.120;8.764;2023-04-10T04:51:14;40.92;;;28.75;;
54919;SDS011;63804;53.120;8.764;2023-04-10T04:53:39;43.45;;;29.13;;
54919;SDS011;63804;53.120;8.764;2023-04-10T04:56:05;45.22;;;29.67;;
54919;SDS011;63804;53.120;8.764;2023-04-10T04:58:31;42.40;;;28.48;;
54919;SDS011;63804;53.120;8.764;2023-04-10T05:00:57;44.08;;;29.58;;
54919;SDS011;63804;53.120;8.764;2023-04-10T05:03:23;42.30;;;28.73;;
54919;SDS011;63804;53.120;8.764;2023-04-10T05:05:49;43.33;;;29.05;;
54919;SDS011;63804;53.120;8.764;2023-04-10T05:08:14;41.92;;;27.75;;
54919;SDS011;63804;53.120;8.764;2023-04-10T05:10:40;40.22;;;28.02;;
54919;SDS011;63804;53.120;8.764;2023-04-10T05:13:06;41.40;;;28.13;;
54919;SDS011;63804;53.120;8.764;2023-04-10T05:15:31;43.60;;;29.52;;
54919;SDS011;63804;53.120;8.764;2023-04-10T05:17:57;38.03;;;26.55;;
54919;SDS011;63804;53.120;8.764;2023-04-10T05:20:22;43.15;;;28.42;;
54919;SDS011;63804;53.120;8.764;2023-04-10T05:22:48;41.25;;;28.38;;
54919;SDS011;63804;53.120;8.764;2023-04-10T05:25:14;40.22;;;26.50;;
54919;SDS011;63804;53.120;8.764;2023-04-10T05:27:40;40.75;;;27.83;;
54919;SDS011;63804;53.120;8.764;2023-04-10T05:30:06;41.95;;;28.13;;
54919;SDS011;63804;53.120;8.764;2023-04-10T05:32:32;39.20;;;27.40;;
54919;SDS011;63804;53.120;8.764;2023-04-10T05:34:57;38.95;;;26.73;;
54919;SDS011;63804;53.120;8.764;2023-04-10T05:37:23;39.50;;;27.08;;
54919;SDS011;63804;53.120;8.764;2023-04-10T05:39:48;40.45;;;27.02;;
54919;SDS011;63804;53.120;8.764;2023-04-10T05:42:14;38.95;;;26.20;;
54919;SDS011;63804;53.120;8.764;2023-04-10T05:44:40;40.92;;;27.27;;
54919;SDS011;63804;53.120;8.764;2023-04-10T05:47:05;38.97;;;26.77;;
54919;SDS011;63804;53.120;8.764;2023-04-10T05:49:31;45.58;;;28.58;;
54919;SDS011;63804;53.120;8.764;2023-04-10T05:51:57;39.25;;;26.25;;
54919;SDS011;63804;53.120;8.764;2023-04-10T05:54:23;36.00;;;26.00;;
54919;SDS011;63804;53.120;8.764;2023-04-10T05:56:49;37.75;;;25.38;;
54919;SDS011;63804;53.120;8.764;2023-04-10T05:59:14;36.95;;;25.65;;
54919;SDS011;63804;53.120;8.764;2023-04-10T06:01:40;36.97;;;24.92;;
54919;SDS011;63804;53.120;8.764;2023-04-10T06:04:06;38.45;;;26.65;;
54919;SDS011;63804;53.120;8.764;2023-04-10T06:06:31;39.05;;;25.27;;
54919;SDS011;63804;53.120;8.764;2023-04-10T06:08:57;36.47;;;24.48;;
54919;SDS011;63804;53.120;8.764;2023-04-10T06:11:23;34.90;;;24.48;;
54919;SDS011;63804;53.120;8.764;2023-04-10T06:13:49;37.85;;;24.85;;
54919;SDS011;63804;53.120;8.764;2023-04-10T06:16:21;34.97;;;24.73;;
54919;SDS011;63804;53.120;8.764;2023-04-10T06:18:47;42.10;;;24.73;;
54919;SDS011;63804;53.120;8.764;2023-04-10T06:21:12;33.33;;;23.50;;
54919;SDS011;63804;53.120;8.764;2023-04-10T06:23:38;35.35;;;23.90;;
54919;SDS011;63804;53.120;8.764;2023-04-10T06:26:05;35.33;;;24.10;;
54919;SDS011;63804;53.120;8.764;2023-04-10T06:28:30;37.55;;;24.63;;
54919;SDS011;63804;53.120;8.764;2023-04-10T06:30:56;35.35;;;24.25;;
54919;SDS011;63804;53.120;8.764;2023-04-10T06:33:22;34.22;;;23.20;;
54919;SDS011;63804;53.120;8.764;2023-04-10T06:35:47;34.45;;;23.80;;
54919;SDS011;63804;53.120;8.764;2023-04-10T06:38:14;34.20;;;23.08;;
54919;SDS011;63804;53.120;8.764;2023-04-10T06:40:40;32.10;;;22.02;;
54919;SDS011;63804;53.120;8.764;2023-04-10T06:43:06;35.17;;;22.77;;
54919;SDS011;63804;53.120;8.764;2023-04-10T06:45:31;32.45;;;21.92;;
54919;SDS011;63804;53.120;8.764;2023-04-10T06:47:57;32.05;;;22.10;;
54919;SDS011;63804;53.120;8.764;2023-04-10T06:50:22;31.80;;;21.95;;
54919;SDS011;63804;53.120;8.764;2023-04-10T06:52:48;31.90;;;22.20;;
54919;SDS011;63804;53.120;8.764;2023-04-10T06:55:13;32.47;;;22.50;;
54919;SDS011;63804;53.120;8.764;2023-04-10T06:57:39;31.40;;;22.40;;
54919;SDS011;63804;53.120;8.764;2023-04-10T07:00:05;31.25;;;21.90;;
54919;SDS011;63804;53.120;8.764;2023-04-10T07:02:31;32.63;;;22.13;;
54919;SDS011;63804;53.120;8.764;2023-04-10T07:04:57;31.77;;;21.50;;
54919;SDS011;63804;53.120;8.764;2023-04-10T07:07:22;30.90;;;21.30;;
54919;SDS011;63804;53.120;8.764;2023-04-10T07:09:48;32.50;;;21.83;;
54919;SDS011;63804;53.120;8.764;2023-04-10T07:12:13;31.48;;;21.23;;
54919;SDS011;63804;53.120;8.764;2023-04-10T07:14:39;31.98;;;21.45;;
54919;SDS011;63804;53.120;8.764;2023-04-10T07:17:05;29.35;;;20.10;;
54919;SDS011;63804;53.120;8.764;2023-04-10T07:19:31;31.02;;;20.63;;
54919;SDS011;63804;53.120;8.764;2023-04-10T07:21:56;30.10;;;20.30;;
54919;SDS011;63804;53.120;8.764;2023-04-10T07:24:22;32.13;;;20.70;;
54919;SDS011;63804;53.120;8.764;2023-04-10T07:26:48;29.20;;;19.67;;
54919;SDS011;63804;53.120;8.764;2023-04-10T07:29:13;28.25;;;19.70;;
54919;SDS011;63804;53.120;8.764;2023-04-10T07:31:40;26.83;;;19.55;;
54919;SDS011;63804;53.120;8.764;2023-04-10T07:34:06;28.45;;;19.98;;
54919;SDS011;63804;53.120;8.764;2023-04-10T07:36:32;29.63;;;19.98;;
54919;SDS011;63804;53.120;8.764;2023-04-10T07:38:58;28.23;;;19.20;;
54919;SDS011;63804;53.120;8.764;2023-04-10T07:41:23;30.08;;;20.15;;
54919;SDS011;63804;53.120;8.764;2023-04-10T07:43:49;26.95;;;19.63;;
54919;SDS011;63804;53.120;8.764;2023-04-10T07:46:15;25.75;;;17.80;;
54919;SDS011;63804;53.120;8.764;2023-04-10T07:48:41;27.23;;;18.85;;
54919;SDS011;63804;53.120;8.764;2023-04-10T07:51:07;26.80;;;18.60;;
54919;SDS011;63804;53.120;8.764;2023-04-10T07:53:37;25.35;;;17.80;;
54919;SDS011;63804;53.120;8.764;2023-04-10T07:56:03;26.23;;;18.10;;
54919;SDS011;63804;53.120;8.764;2023-04-10T07:58:29;26.20;;;17.60;;
54919;SDS011;63804;53.120;8.764;2023-04-10T08:00:56;26.05;;;17.33;;
54919;SDS011;63804;53.120;8.764;2023-04-10T08:03:21;24.70;;;16.67;;
54919;SDS011;63804;53.120;8.764;2023-04-10T08:05:47;26.58;;;17.35;;
54919;SDS011;63804;53.120;8.764;2023-04-10T08:08:14;25.00;;;16.65;;
54919;SDS011;63804;53.120;8.764;2023-04-10T08:10:40;24.10;;;16.60;;
54919;SDS011;63804;53.120;8.764;2023-04-10T08:13:05;24.50;;;16.65;;
54919;SDS011;63804;53.120;8.764;2023-04-10T08:15:31;25.63;;;16.92;;
54919;SDS011;63804;53.120;8.764;2023-04-10T08:17:56;24.52;;;16.15;;
54919;SDS011;63804;53.120;8.764;2023-04-10T08:20:22;24.52;;;16.58;;
54919;SDS011;63804;53.120;8.764;2023-04-10T08:22:47;25.10;;;15.93;;
54919;SDS011;63804;53.120;8.764;2023-04-10T08:25:19;22.98;;;15.88;;
54919;SDS011;63804;53.120;8.764;2023-04-10T08:27:45;22.95;;;15.45;;
54919;SDS011;63804;53.120;8.764;2023-04-10T08:30:10;22.20;;;15.32;;
54919;SDS011;63804;53.120;8.764;2023-04-10T08:32:37;24.33;;;14.82;;
54919;SDS011;63804;53.120;8.764;2023-04-10T08:35:02;22.85;;;15.05;;
54919;SDS011;63804;53.120;8.764;2023-04-10T08:37:28;20.95;;;14.07;;
54919;SDS011;63804;53.120;8.764;2023-04-10T08:39:54;22.80;;;14.45;;
54919;SDS011;63804;53.120;8.764;2023-04-10T08:42:19;22.90;;;15.15;;
54919;SDS011;63804;53.120;8.764;2023-04-10T08:44:47;23.15;;;15.23;;
54919;SDS011;63804;53.120;8.764;2023-04-10T08:47:13;21.58;;;14.45;;
54919;SDS011;63804;53.120;8.764;2023-04-10T08:52:21;22.27;;;14.25;;
54919;SDS011;63804;53.120;8.764;2023-04-10T08:54:50;20.63;;;13.35;;
54919;SDS011;63804;53.120;8.764;2023-04-10T08:57:21;20.08;;;12.77;;
54919;SDS011;63804;53.120;8.764;2023-04-10T08:59:48;19.55;;;13.02;;
54919;SDS011;63804;53.120;8.764;2023-04-10T09:02:16;19.42;;;12.63;;
54919;SDS011;63804;53.120;8.764;2023-04-10T09:04:43;19.23;;;12.73;;
54919;SDS011;63804;53.120;8.764;2023-04-10T09:07:12;18.85;;;12.90;;
54919;SDS011;63804;53.120;8.764;2023-04-10T09:09:38;19.13;;;12.63;;
54919;SDS011;63804;53.120;8.764;2023-04-10T09:12:04;18.55;;;11.82;;
54919;SDS011;63804;53.120;8.764;2023-04-10T09:14:32;18.45;;;12.02;;
54919;SDS011;63804;53.120;8.764;2023-04-10T09:17:18;17.00;;;11.63;;
54919;SDS011;63804;53.120;8.764;2023-04-10T09:19:46;17.27;;;11.57;;
54919;SDS011;63804;53.120;8.764;2023-04-10T09:22:14;15.95;;;10.57;;
54919;SDS011;63804;53.120;8.764;2023-04-10T09:24:42;17.80;;;11.68;;
54919;SDS011;63804;53.120;8.764;2023-04-10T09:27:09;19.05;;;10.60;;
54919;SDS011;63804;53.120;8.764;2023-04-10T09:29:40;18.23;;;10.93;;
54919;SDS011;63804;53.120;8.764;2023-04-10T09:32:06;16.45;;;10.13;;
54919;SDS011;63804;53.120;8.764;2023-04-10T09:34:32;14.23;;;9.40;;
54919;SDS011;63804;53.120;8.764;2023-04-10T09:36:58;15.30;;;10.10;;
54919;SDS011;63804;53.120;8.764;2023-04-10T09:39:34;15.40;;;9.80;;
54919;SDS011;63804;53.120;8.764;2023-04-10T09:42:02;18.10;;;9.95;;
54919;SDS011;63804;53.120;8.764;2023-04-10T09:44:32;13.10;;;9.02;;
54919;SDS011;63804;53.120;8.764;2023-04-10T09:47:19;14.10;;;9.25;;
54919;SDS011;63804;53.120;8.764;2023-04-10T09:52:27;15.63;;;8.80;;
54919;SDS011;63804;53.120;8.764;2023-04-10T09:57:29;13.82;;;8.52;;
54919;SDS011;63804;53.120;8.764;2023-04-10T09:59:56;15.95;;;8.77;;
54919;SDS011;63804;53.120;8.764;2023-04-10T10:02:24;15.95;;;8.45;;
54919;SDS011;63804;53.120;8.764;2023-04-10T10:04:52;15.57;;;9.07;;
54919;SDS011;63804;53.120;8.764;2023-04-10T10:07:19;13.98;;;8.32;;
54919;SDS011;63804;53.120;8.764;2023-04-10T10:09:48;15.25;;;7.70;;
54919;SDS011;63804;53.120;8.764;2023-04-10T10:12:23;12.10;;;7.55;;
54919;SDS011;63804;53.120;8.764;2023-04-10T10:17:32;14.77;;;7.60;;
54919;SDS011;63804;53.120;8.764;2023-04-10T10:20:08;14.40;;;8.07;;
54919;SDS011;63804;53.120;8.764;2023-04-10T10:22:36;14.63;;;7.90;;
54919;SDS011;63804;53.120;8.764;2023-04-10T10:25:02;13.73;;;7.82;;
54919;SDS011;63804;53.120;8.764;2023-04-10T10:27:30;12.60;;;7.25;;
54919;SDS011;63804;53.120;8.764;2023-04-10T10:29:59;14.40;;;7.18;;
54919;SDS011;63804;53.120;8.764;2023-04-10T10:32:25;12.93;;;7.93;;
54919;SDS011;63804;53.120;8.764;2023-04-10T10:34:52;14.95;;;8.48;;
54919;SDS011;63804;53.120;8.764;2023-04-10T10:37:18;11.98;;;7.43;;
54919;SDS011;63804;53.120;8.764;2023-04-10T10:39:51;13.13;;;7.60;;
54919;SDS011;63804;53.120;8.764;2023-04-10T10:48:18;14.13;;;7.53;;
54919;SDS011;63804;53.120;8.764;2023-04-10T10:50:51;13.13;;;7.47;;
54919;SDS011;63804;53.120;8.764;2023-04-10T10:53:29;13.18;;;7.85;;
54919;SDS011;63804;53.120;8.764;2023-04-10T10:56:31;13.43;;;7.22;;
54919;SDS011;63804;53.120;8.764;2023-04-10T10:58:45;13.35;;;7.63;;
54919;SDS011;63804;53.120;8.764;2023-04-10T11:01:12;11.60;;;7.43;;
54919;SDS011;63804;53.120;8.764;2023-04-10T11:03:38;12.50;;;7.47;;
54919;SDS011;63804;53.120;8.764;2023-04-10T11:06:07;13.50;;;7.57;;
54919;SDS011;63804;53.120;8.764;2023-04-10T11:16:42;12.70;;;6.68;;
54919;SDS011;63804;53.120;8.764;2023-04-10T11:19:08;12.13;;;7.55;;
54919;SDS011;63804;53.120;8.764;2023-04-10T11:22:24;13.40;;;7.53;;
54919;SDS011;63804;53.120;8.764;2023-04-10T11:24:53;16.13;;;7.22;;
54919;SDS011;63804;53.120;8.764;2023-04-10T11:30:07;10.93;;;6.82;;
54919;SDS011;63804;53.120;8.764;2023-04-10T11:32:52;13.65;;;7.00;;
54919;SDS011;63804;53.120;8.764;2023-04-10T11:35:18;13.38;;;7.00;;
54919;SDS011;63804;53.120;8.764;2023-04-10T11:37:44;10.93;;;6.75;;
54919;SDS011;63804;53.120;8.764;2023-04-10T11:40:10;13.95;;;7.07;;
54919;SDS011;63804;53.120;8.764;2023-04-10T11:42:36;13.00;;;6.68;;
54919;SDS011;63804;53.120;8.764;2023-04-10T11:47:50;11.63;;;6.32;;
54919;SDS011;63804;53.120;8.764;2023-04-10T11:50:18;10.32;;;6.63;;
54919;SDS011;63804;53.120;8.764;2023-04-10T11:52:54;12.10;;;7.95;;
54919;SDS011;63804;53.120;8.764;2023-04-10T11:55:34;11.25;;;6.30;;
54919;SDS011;63804;53.120;8.764;2023-04-10T11:58:01;10.38;;;5.97;;
54919;SDS011;63804;53.120;8.764;2023-04-10T12:00:27;14.23;;;6.35;;
54919;SDS011;63804;53.120;8.764;2023-04-10T12:02:52;10.90;;;6.22;;
54919;SDS011;63804;53.120;8.764;2023-04-10T12:05:18;16.92;;;6.38;;
54919;SDS011;63804;53.120;8.764;2023-04-10T12:07:44;10.32;;;5.97;;
54919;SDS011;63804;53.120;8.764;2023-04-10T12:10:09;9.85;;;6.10;;
54919;SDS011;63804;53.120;8.764;2023-04-10T12:12:35;11.82;;;5.85;;
54919;SDS011;63804;53.120;8.764;2023-04-10T12:15:02;9.27;;;5.38;;
54919;SDS011;63804;53.120;8.764;2023-04-10T12:17:28;9.93;;;5.68;;
54919;SDS011;63804;53.120;8.764;2023-04-10T12:19:54;9.10;;;5.68;;
54919;SDS011;63804;53.120;8.764;2023-04-10T12:22:20;9.55;;;5.47;;
54919;SDS011;63804;53.120;8.764;2023-04-10T12:24:46;10.57;;;5.88;;
54919;SDS011;63804;53.120;8.764;2023-04-10T12:27:20;11.00;;;5.57;;
54919;SDS011;63804;53.120;8.764;2023-04-10T12:29:48;9.30;;;5.13;;
54919;SDS011;63804;53.120;8.764;2023-04-10T12:32:15;9.43;;;5.13;;
54919;SDS011;63804;53.120;8.764;2023-04-10T12:34:41;8.52;;;4.95;;
54919;SDS011;63804;53.120;8.764;2023-04-10T12:37:14;9.57;;;5.00;;
54919;SDS011;63804;53.120;8.764;2023-04-10T12:39:40;9.68;;;4.95;;
54919;SDS011;63804;53.120;8.764;2023-04-10T12:42:09;10.38;;;4.97;;
54919;SDS011;63804;53.120;8.764;2023-04-10T12:47:21;8.63;;;4.88;;
54919;SDS011;63804;53.120;8.764;2023-04-10T12:52:34;11.18;;;5.28;;
54919;SDS011;63804;53.120;8.764;2023-04-10T12:55:08;11.10;;;5.18;;
54919;SDS011;63804;53.120;8.764;2023-04-10T12:57:41;11.23;;;5.35;;
54919;SDS011;63804;53.120;8.764;2023-04-10T13:00:09;9.85;;;5.50;;
54919;SDS011;63804;53.120;8.764;2023-04-10T13:02:37;10.52;;;5.80;;
54919;SDS011;63804;53.120;8.764;2023-04-10T13:05:04;19.13;;;6.43;;
54919;SDS011;63804;53.120;8.764;2023-04-10T13:07:30;10.68;;;4.80;;
54919;SDS011;63804;53.120;8.764;2023-04-10T13:09:56;10.63;;;5.43;;
54919;SDS011;63804;53.120;8.764;2023-04-10T13:12:22;10.32;;;4.97;;
54919;SDS011;63804;53.120;8.764;2023-04-10T13:14:49;10.35;;;4.60;;
54919;SDS011;63804;53.120;8.764;2023-04-10T13:17:15;13.15;;;5.28;;
54919;SDS011;63804;53.120;8.764;2023-04-10T13:19:40;9.15;;;4.88;;
54919;SDS011;63804;53.120;8.764;2023-04-10T13:22:06;10.65;;;4.70;;
54919;SDS011;63804;53.120;8.764;2023-04-10T13:24:31;10.07;;;5.20;;
54919;SDS011;63804;53.120;8.764;2023-04-10T13:26:57;8.13;;;4.80;;
54919;SDS011;63804;53.120;8.764;2023-04-10T13:29:23;7.72;;;4.32;;
54919;SDS011;63804;53.120;8.764;2023-04-10T13:31:49;7.88;;;4.60;;
54919;SDS011;63804;53.120;8.764;2023-04-10T13:34:14;10.27;;;4.10;;
54919;SDS011;63804;53.120;8.764;2023-04-10T13:36:40;7.35;;;3.95;;
54919;SDS011;63804;53.120;8.764;2023-04-10T13:39:06;7.03;;;4.25;;
54919;SDS011;63804;53.120;8.764;2023-04-10T13:41:32;7.18;;;3.75;;
54919;SDS011;63804;53.120;8.764;2023-04-10T13:43:57;9.82;;;4.75;;
54919;SDS011;63804;53.120;8.764;2023-04-10T13:46:23;7.72;;;4.50;;
54919;SDS011;63804;53.120;8.764;2023-04-10T13:48:49;8.10;;;4.13;;
54919;SDS011;63804;53.120;8.764;2023-04-10T13:51:15;7.18;;;3.78;;
54919;SDS011;63804;53.120;8.764;2023-04-10T13:53:41;9.65;;;4.10;;
54919;SDS011;63804;53.120;8.764;2023-04-10T13:56:06;8.85;;;3.80;;
54919;SDS011;63804;53.120;8.764;2023-04-10T13:58:32;6.68;;;3.72;;
54919;SDS011;63804;53.120;8.764;2023-04-10T14:00:58;8.20;;;3.70;;
54919;SDS011;63804;53.120;8.764;2023-04-10T14:03:25;7.78;;;3.70;;
54919;SDS011;63804;53.120;8.764;2023-04-10T14:05:51;7.60;;;3.72;;
54919;SDS011;63804;53.120;8.764;2023-04-10T14:08:17;9.10;;;4.18;;
54919;SDS011;63804;53.120;8.764;2023-04-10T14:10:44;6.05;;;3.40;;
54919;SDS011;63804;53.120;8.764;2023-04-10T14:13:18;7.03;;;3.55;;
54919;SDS011;63804;53.120;8.764;2023-04-10T14:15:45;7.15;;;3.88;;
54919;SDS011;63804;53.120;8.764;2023-04-10T14:18:10;8.82;;;3.67;;
54919;SDS011;63804;53.120;8.764;2023-04-10T14:20:36;6.97;;;3.88;;
54919;SDS011;63804;53.120;8.764;2023-04-10T14:23:02;7.45;;;3.83;;
54919;SDS011;63804;53.120;8.764;2023-04-10T14:25:28;6.47;;;3.40;;
54919;SDS011;63804;53.120;8.764;2023-04-10T14:27:53;6.32;;;3.33;;
54919;SDS011;63804;53.120;8.764;2023-04-10T14:30:19;6.70;;;3.53;;
54919;SDS011;63804;53.120;8.764;2023-04-10T14:32:45;6.45;;;3.22;;
54919;SDS011;63804;53.120;8.764;2023-04-10T14:35:10;5.00;;;2.97;;
54919;SDS011;63804;53.120;8.764;2023-04-10T14:37:36;7.35;;;3.30;;
54919;SDS011;63804;53.120;8.764;2023-04-10T14:40:02;6.40;;;3.40;;
54919;SDS011;63804;53.120;8.764;2023-04-10T14:42:29;7.85;;;3.40;;
54919;SDS011;63804;53.120;8.764;2023-04-10T14:44:55;8.43;;;3.30;;
54919;SDS011;63804;53.120;8.764;2023-04-10T14:47:23;7.20;;;3.88;;
54919;SDS011;63804;53.120;8.764;2023-04-10T14:49:49;7.50;;;3.70;;
54919;SDS011;63804;53.120;8.764;2023-04-10T14:52:14;9.32;;;3.80;;
54919;SDS011;63804;53.120;8.764;2023-04-10T14:54:40;7.50;;;3.65;;
54919;SDS011;63804;53.120;8.764;2023-04-10T14:57:05;7.40;;;3.88;;
54919;SDS011;63804;53.120;8.764;2023-04-10T14:59:31;6.63;;;3.70;;
54919;SDS011;63804;53.120;8.764;2023-04-10T15:01:57;11.38;;;4.10;;
54919;SDS011;63804;53.120;8.764;2023-04-10T15:04:22;8.38;;;3.70;;
54919;SDS011;63804;53.120;8.764;2023-04-10T15:06:48;10.15;;;4.18;;
54919;SDS011;63804;53.120;8.764;2023-04-10T15:09:13;6.55;;;3.45;;
54919;SDS011;63804;53.120;8.764;2023-04-10T15:11:39;6.93;;;4.00;;
54919;SDS011;63804;53.120;8.764;2023-04-10T15:14:04;7.00;;;3.70;;
54919;SDS011;63804;53.120;8.764;2023-04-10T15:16:38;7.72;;;3.58;;